createdAt,value
2019-03-25T00:02:06.294Z,100056.26
2019-03-25T00:04:37.327Z,100057.52
2019-03-25T00:07:08.434Z,100058.46
2019-03-25T00:09:39.459Z,100061.08
2019-03-25T00:12:10.454Z,100055.99
2019-03-25T00:14:41.485Z,100061.30
2019-03-25T00:17:12.474Z,100058.43
2019-03-25T00:19:43.603Z,100060.19
2019-03-25T00:22:14.605Z,100057.30
2019-03-25T00:24:45.641Z,100057.22
2019-03-25T00:27:16.751Z,100055.13
2019-03-25T00:29:47.791Z,100058.55
2019-03-25T00:32:18.787Z,100052.34
2019-03-25T00:34:49.819Z,100053.30
2019-03-25T00:37:20.815Z,100061.27
2019-03-25T00:39:51.908Z,100056.41
2019-03-25T00:42:22.938Z,100051.44
2019-03-25T00:44:53.932Z,100052.47
2019-03-25T00:47:25.001Z,100052.91
2019-03-25T00:49:55.998Z,100057.23
2019-03-25T00:52:27.052Z,100049.34
2019-03-25T00:54:58.045Z,100049.77
2019-03-25T00:57:29.040Z,100053.92
2019-03-25T01:00:00.075Z,100051.53
2019-03-25T01:02:31.146Z,100049.04
2019-03-25T01:05:02.142Z,100034.83
2019-03-25T01:07:33.126Z,100029.88
2019-03-25T01:10:04.363Z,100028.94
2019-03-25T01:12:35.353Z,100021.27
2019-03-25T01:15:06.931Z,100017.53
2019-03-25T01:17:37.960Z,100018.56
2019-03-25T01:20:10.269Z,100009.54
2019-03-25T01:22:41.312Z,100008.81
2019-03-25T01:25:12.450Z,100006.45
2019-03-25T01:27:43.480Z,100002.89
2019-03-25T01:30:14.780Z,100001.55
2019-03-25T01:32:45.795Z,99992.34
2019-03-25T01:35:16.828Z,99995.03
2019-03-25T01:37:47.806Z,99996.88
2019-03-25T01:40:18.923Z,99987.14
2019-03-25T01:42:49.899Z,99989.22
2019-03-25T01:45:20.925Z,99996.36
2019-03-25T01:47:51.904Z,99988.91
2019-03-25T01:50:22.916Z,99988.19
2019-03-25T01:52:53.916Z,99976.27
2019-03-25T01:55:24.937Z,99985.80
2019-03-25T01:57:56.025Z,99980.72
2019-03-25T02:00:27.082Z,99976.67
2019-03-25T02:02:58.164Z,99983.60
2019-03-25T02:05:29.294Z,99976.34
2019-03-25T02:08:00.275Z,99981.72
2019-03-25T02:10:31.300Z,99974.65
2019-03-25T02:13:02.314Z,99976.71
2019-03-25T02:15:33.345Z,99977.44
2019-03-25T02:18:04.436Z,99971.61
2019-03-25T02:20:35.483Z,99969.33
2019-03-25T02:23:06.842Z,99968.61
2019-03-25T02:25:37.980Z,99964.33
2019-03-25T02:28:09.030Z,99962.59
2019-03-25T02:30:40.014Z,99956.17
2019-03-25T02:33:11.088Z,99961.25
2019-03-25T02:35:42.134Z,99954.81
2019-03-25T02:38:13.153Z,99951.59
2019-03-25T02:40:44.137Z,99950.25
2019-03-25T02:43:15.147Z,99947.34
2019-03-25T02:45:46.134Z,99946.39
2019-03-25T02:48:17.151Z,99948.03
2019-03-25T02:50:48.348Z,99947.41
2019-03-25T02:53:19.342Z,99936.01
2019-03-25T02:55:50.560Z,99939.00
2019-03-25T02:58:21.522Z,99937.02
2019-03-25T03:00:52.514Z,99938.45
2019-03-25T03:03:23.506Z,99943.02
2019-03-25T03:05:54.522Z,99950.98
2019-03-25T03:08:25.645Z,99943.08
2019-03-25T03:10:56.667Z,99954.55
2019-03-25T03:13:27.689Z,99957.33
2019-03-25T03:15:58.672Z,99961.66
2019-03-25T03:18:29.703Z,99963.09
2019-03-25T03:21:00.674Z,99958.45
2019-03-25T03:23:31.657Z,99960.59
2019-03-25T03:26:02.646Z,99949.83
2019-03-25T03:28:33.681Z,99952.38
2019-03-25T03:31:04.772Z,99948.79
2019-03-25T03:33:35.802Z,99951.59
2019-03-25T03:36:07.014Z,99947.06
2019-03-25T03:38:38.048Z,99942.50
2019-03-25T03:41:09.257Z,99949.53
2019-03-25T03:43:40.241Z,99943.96
2019-03-25T03:46:11.276Z,99935.06
2019-03-25T03:48:42.308Z,99937.53
2019-03-25T03:51:13.516Z,99932.67
2019-03-25T03:53:44.644Z,99932.16
2019-03-25T03:56:16.376Z,99928.45
2019-03-25T03:58:47.708Z,99922.02
2019-03-25T04:01:18.683Z,99922.02
2019-03-25T04:03:49.706Z,99919.34
2019-03-25T04:06:20.738Z,99919.34
2019-03-25T04:08:51.719Z,99909.29
2019-03-25T04:11:22.738Z,99903.50
2019-03-25T04:13:53.731Z,99810.81
2019-03-25T04:16:24.752Z,99911.84
2019-03-25T04:18:55.753Z,99900.55
2019-03-25T04:21:26.747Z,99899.83
2019-03-25T04:23:57.715Z,99903.02
2019-03-25T04:26:29.598Z,99889.95
2019-03-25T04:29:00.703Z,99895.96
2019-03-25T04:31:31.762Z,99900.94
2019-03-25T04:34:02.803Z,99900.94
2019-03-25T04:36:33.772Z,99898.10
2019-03-25T04:39:06.158Z,99898.10
2019-03-25T04:41:37.273Z,99898.95
2019-03-25T04:44:08.305Z,99896.84
2019-03-25T04:46:39.313Z,99899.97
2019-03-25T04:49:10.356Z,99899.97
2019-03-25T04:51:41.393Z,99900.27
2019-03-25T04:54:12.384Z,99900.27
2019-03-25T04:56:43.409Z,99900.31
2019-03-25T04:59:14.438Z,99902.89
2019-03-25T05:01:45.430Z,99905.34
2019-03-25T05:04:16.467Z,99912.33
2019-03-25T05:06:47.440Z,99907.89
2019-03-25T05:09:18.425Z,99913.00
2019-03-25T05:11:49.464Z,99911.89
2019-03-25T05:14:20.769Z,99912.54
2019-03-25T05:16:51.757Z,99911.81
2019-03-25T05:19:22.793Z,99914.09
2019-03-25T05:21:53.822Z,99804.59
2019-03-25T05:24:24.858Z,99908.52
2019-03-25T05:26:55.836Z,99911.55
2019-03-25T05:29:26.855Z,99909.48
2019-03-25T05:31:57.846Z,99903.78
2019-03-25T05:34:28.938Z,99903.78
2019-03-25T05:36:59.951Z,99906.75
2019-03-25T05:39:30.982Z,99897.94
2019-03-25T05:42:02.117Z,99896.84
2019-03-25T05:44:33.169Z,99897.94
2019-03-25T05:47:04.161Z,99892.94
2019-03-25T05:49:35.190Z,99892.75
2019-03-25T05:52:06.178Z,99889.57
2019-03-25T05:54:37.264Z,99894.17
2019-03-25T05:57:08.284Z,99884.36
2019-03-25T05:59:39.279Z,99889.58
2019-03-25T06:02:10.324Z,99884.63
2019-03-25T06:04:41.328Z,99881.84
2019-03-25T06:07:12.365Z,99876.06
2019-03-25T06:09:43.390Z,99887.80
2019-03-25T06:12:14.440Z,99884.69
2019-03-25T06:14:45.504Z,99876.97
2019-03-25T06:17:16.565Z,99874.84
2019-03-25T06:19:47.581Z,99876.52
2019-03-25T06:22:18.640Z,99875.89
2019-03-25T06:24:49.926Z,99879.79
2019-03-25T06:27:21.051Z,99875.72
2019-03-25T06:29:52.141Z,99869.80
2019-03-25T06:32:23.397Z,99869.81
2019-03-25T06:35:01.036Z,99870.24
2019-03-25T06:37:32.060Z,99871.39
2019-03-25T06:40:05.316Z,99868.99
2019-03-25T06:42:36.351Z,99868.43
2019-03-25T06:45:08.301Z,99864.99
2019-03-25T06:47:39.359Z,99866.84
2019-03-25T06:50:11.090Z,99852.06
2019-03-25T06:52:42.147Z,99855.98
2019-03-25T06:55:13.303Z,99855.26
2019-03-25T06:57:44.502Z,99852.93
2019-03-25T07:00:15.811Z,99847.54
2019-03-25T07:02:46.845Z,99855.13
2019-03-25T07:05:18.295Z,99857.56
2019-03-25T07:07:49.418Z,99853.58
2019-03-25T07:10:32.965Z,99844.25
2019-03-25T07:13:04.378Z,99757.41
2019-03-25T07:15:35.545Z,99839.14
2019-03-25T07:18:06.925Z,99832.13
2019-03-25T07:20:38.003Z,99836.36
2019-03-25T07:23:09.035Z,99819.67
2019-03-25T07:25:40.197Z,99727.34
2019-03-25T07:28:11.258Z,99821.27
2019-03-25T07:30:42.449Z,99810.21
2019-03-25T07:33:13.512Z,99807.25
2019-03-25T07:35:44.893Z,99800.88
2019-03-25T07:38:15.963Z,99788.66
2019-03-25T07:40:47.105Z,99785.88
2019-03-25T07:43:18.335Z,99778.39
2019-03-25T07:45:49.444Z,99685.67
2019-03-25T07:48:20.810Z,99768.73
2019-03-25T07:50:51.828Z,99767.58
2019-03-25T07:53:22.862Z,99769.03
2019-03-25T07:55:53.924Z,99761.13
2019-03-25T07:58:25.041Z,99759.38
2019-03-25T08:00:57.373Z,99755.97
2019-03-25T08:03:28.407Z,99752.52
2019-03-25T08:05:59.440Z,99744.86
2019-03-25T08:08:30.570Z,99649.14
2019-03-25T08:11:01.571Z,99730.88
2019-03-25T08:13:32.606Z,99725.47
2019-03-25T08:16:03.667Z,99717.42
2019-03-25T08:18:34.767Z,99713.74
2019-03-25T08:21:05.919Z,99710.22
2019-03-25T08:23:36.966Z,99699.55
2019-03-25T08:26:08.130Z,99705.64
2019-03-25T08:28:39.191Z,99704.91
2019-03-25T08:31:10.340Z,99697.47
2019-03-25T08:33:41.410Z,99694.27
2019-03-25T08:36:12.662Z,99696.05
2019-03-25T08:38:43.697Z,99691.19
2019-03-25T08:41:14.762Z,99690.16
2019-03-25T08:43:45.805Z,99686.95
2019-03-25T08:46:16.798Z,99685.31
2019-03-25T08:48:47.830Z,99679.86
2019-03-25T08:51:18.865Z,99680.98
2019-03-25T08:53:49.901Z,99677.15
2019-03-25T08:56:20.915Z,99676.89
2019-03-25T08:58:51.956Z,99674.17
2019-03-25T09:01:23.010Z,99670.34
2019-03-25T09:03:54.020Z,99662.69
2019-03-25T09:06:25.132Z,99663.80
2019-03-25T09:08:56.190Z,99657.51
2019-03-25T09:11:27.208Z,99650.13
2019-03-25T09:13:58.299Z,99646.84
2019-03-25T09:16:29.373Z,99642.20
2019-03-25T09:19:00.423Z,99640.25
2019-03-25T09:21:31.462Z,99630.95
2019-03-25T09:24:02.479Z,99629.00
2019-03-25T09:26:33.519Z,99632.81
2019-03-25T09:29:04.579Z,99619.41
2019-03-25T09:31:37.223Z,99619.92
2019-03-25T09:34:08.610Z,99612.98
2019-03-25T09:36:42.640Z,99610.20
2019-03-25T09:39:13.913Z,99609.58
2019-03-25T09:41:45.025Z,99598.89
2019-03-25T09:44:16.349Z,99588.70
2019-03-25T09:46:47.363Z,99588.63
2019-03-25T09:49:18.477Z,99580.97
2019-03-25T09:52:10.232Z,99575.66
2019-03-25T09:54:44.155Z,99568.80
2019-03-25T09:57:15.235Z,99557.22
2019-03-25T09:59:46.578Z,99555.76
2019-03-25T10:02:17.838Z,99547.01
2019-03-25T10:04:49.369Z,99535.20
2019-03-25T10:07:25.133Z,99446.57
2019-03-25T10:09:56.233Z,99529.13
2019-03-25T10:12:27.261Z,99517.82
2019-03-25T10:14:58.366Z,99511.31
2019-03-25T10:17:29.414Z,99515.95
2019-03-25T10:20:00.651Z,99513.39
2019-03-25T10:22:31.757Z,99516.41
2019-03-25T10:25:02.762Z,99503.41
2019-03-25T10:27:35.857Z,99499.05
2019-03-25T10:30:08.034Z,99490.19
2019-03-25T10:32:39.166Z,99489.27
2019-03-25T10:35:10.717Z,99438.84
2019-03-25T10:37:41.858Z,99478.50
2019-03-25T10:40:13.806Z,99474.83
2019-03-25T10:42:44.886Z,99471.39
2019-03-25T10:45:16.111Z,99467.66
2019-03-25T10:47:47.134Z,99454.78
2019-03-25T10:50:18.254Z,99444.54
2019-03-25T10:52:49.594Z,99442.59
2019-03-25T10:55:20.640Z,99435.98
2019-03-25T10:57:51.630Z,99429.41
2019-03-25T11:00:23.459Z,99425.72
2019-03-25T11:02:54.458Z,99339.43
2019-03-25T11:05:25.597Z,99413.38
2019-03-25T11:07:56.658Z,99407.28
2019-03-25T11:10:27.868Z,99404.29
2019-03-25T11:12:58.945Z,99398.28
2019-03-25T11:15:29.957Z,99386.74
2019-03-25T11:18:01.038Z,99386.22
2019-03-25T11:20:32.046Z,99380.45
2019-03-25T11:23:03.099Z,99378.75
2019-03-25T11:25:34.203Z,99369.33
2019-03-25T11:28:05.311Z,99367.16
2019-03-25T11:30:55.216Z,99357.23
2019-03-25T11:33:26.730Z,99343.28
2019-03-25T11:35:57.963Z,99340.86
2019-03-25T11:38:29.351Z,99331.16
2019-03-25T11:41:00.842Z,99326.42
2019-03-25T11:43:32.041Z,99330.27
2019-03-25T11:46:03.051Z,99233.70
2019-03-25T11:48:34.189Z,99312.09
2019-03-25T11:51:05.216Z,99307.63
2019-03-25T11:53:36.330Z,99303.80
2019-03-25T11:56:07.516Z,99285.67
2019-03-25T11:58:38.521Z,99276.00
2019-03-25T12:01:09.766Z,99274.02
2019-03-25T12:03:40.812Z,99271.73
2019-03-25T12:06:11.954Z,99265.14
2019-03-25T12:08:43.080Z,99259.50
2019-03-25T12:11:14.334Z,99251.77
2019-03-25T12:13:45.346Z,99242.89
2019-03-25T12:16:16.429Z,99237.62
2019-03-25T12:18:47.439Z,99236.55
2019-03-25T12:21:18.477Z,99221.84
2019-03-25T12:23:49.509Z,99213.97
2019-03-25T12:26:20.692Z,99213.97
2019-03-25T12:28:51.802Z,99213.91
2019-03-25T12:31:22.874Z,99119.00
2019-03-25T12:33:53.894Z,99201.14
2019-03-25T12:36:24.938Z,99195.17
2019-03-25T12:38:56.006Z,99190.45
2019-03-25T12:41:27.044Z,99190.54
2019-03-25T12:43:58.059Z,99181.37
2019-03-25T12:46:29.052Z,99177.89
2019-03-25T12:49:00.086Z,99172.47
2019-03-25T12:51:31.064Z,99164.86
2019-03-25T12:54:02.147Z,99155.44
2019-03-25T12:56:33.238Z,99160.30
2019-03-25T12:59:04.457Z,99151.12
2019-03-25T13:01:35.522Z,99148.42
2019-03-25T13:04:07.571Z,99140.00
2019-03-25T13:06:38.651Z,99139.85
2019-03-25T13:09:09.782Z,99136.02
2019-03-25T13:11:40.854Z,99122.72
2019-03-25T13:14:11.930Z,99122.34
2019-03-25T13:16:43.027Z,99119.25
2019-03-25T13:19:14.053Z,99116.19
2019-03-25T13:21:45.110Z,99116.80
2019-03-25T13:24:16.170Z,99097.88
2019-03-25T13:26:47.214Z,99097.38
2019-03-25T13:29:18.274Z,99090.88
2019-03-25T13:31:49.333Z,99095.92
2019-03-25T13:34:20.443Z,99090.52
2019-03-25T13:36:51.457Z,99087.20
2019-03-25T13:39:22.509Z,99084.47
2019-03-25T13:41:53.505Z,99079.95
2019-03-25T13:44:24.521Z,99080.63
2019-03-25T13:46:55.529Z,99074.14
2019-03-25T13:49:26.582Z,99069.94
2019-03-25T13:51:57.715Z,99072.69
2019-03-25T13:54:28.734Z,99066.95
2019-03-25T13:56:59.801Z,99057.54
2019-03-25T13:59:30.830Z,99061.88
2019-03-25T14:02:01.910Z,99050.06
2019-03-25T14:04:33.447Z,99047.22
2019-03-25T14:07:04.680Z,99047.63
2019-03-25T14:09:35.787Z,99049.81
2019-03-25T14:12:06.856Z,98966.38
2019-03-25T14:14:37.877Z,99042.21
2019-03-25T14:17:09.334Z,99031.45
2019-03-25T14:19:40.401Z,99030.80
2019-03-25T14:22:11.399Z,99029.42
2019-03-25T14:24:42.431Z,99034.30
2019-03-25T14:27:13.440Z,99032.09
2019-03-25T14:29:44.471Z,99026.09
2019-03-25T14:32:15.588Z,99018.39
2019-03-25T14:34:46.599Z,99013.46
2019-03-25T14:37:17.640Z,99015.41
2019-03-25T14:39:48.706Z,99018.80
2019-03-25T14:42:19.696Z,99015.33
2019-03-25T14:44:50.701Z,99005.59
2019-03-25T14:47:21.965Z,99007.38
2019-03-25T14:49:53.015Z,98998.67
2019-03-25T14:52:24.006Z,98999.30
2019-03-25T14:54:55.036Z,98994.02
2019-03-25T14:57:26.022Z,98997.03
2019-03-25T14:59:57.084Z,98992.23
2019-03-25T15:02:28.228Z,98984.55
2019-03-25T15:04:59.246Z,98988.45
2019-03-25T15:07:30.252Z,98981.89
2019-03-25T15:10:01.299Z,98976.88
2019-03-25T15:12:32.398Z,98976.47
2019-03-25T15:15:03.598Z,98973.05
2019-03-25T15:17:34.725Z,98977.67
2019-03-25T15:20:06.498Z,98980.69
2019-03-25T15:22:37.735Z,98972.57
2019-03-25T15:25:09.655Z,98977.36
2019-03-25T15:27:40.660Z,98891.47
2019-03-25T15:30:12.287Z,98967.23
2019-03-25T15:32:43.486Z,98964.56
2019-03-25T15:35:14.631Z,98882.79
2019-03-25T15:37:45.680Z,98961.27
2019-03-25T15:40:17.657Z,98966.86
2019-03-25T15:42:48.691Z,98964.02
2019-03-25T15:45:19.883Z,98964.18
2019-03-25T15:47:51.176Z,98961.56
2019-03-25T15:50:22.378Z,98961.91
2019-03-25T15:52:53.371Z,98958.70
2019-03-25T15:55:24.530Z,98940.55
2019-03-25T15:57:55.546Z,98962.01
2019-03-25T16:00:26.976Z,98958.97
2019-03-25T16:02:58.012Z,98953.31
2019-03-25T16:05:29.105Z,98955.44
2019-03-25T16:08:00.128Z,98950.33
2019-03-25T16:10:31.134Z,98950.91
2019-03-25T16:13:02.199Z,98949.61
2019-03-25T16:15:41.936Z,98947.44
2019-03-25T16:18:52.771Z,98949.03
2019-03-25T16:21:23.749Z,98952.27
2019-03-25T16:23:54.767Z,98949.36
2019-03-25T16:26:25.754Z,98950.18
2019-03-25T16:28:56.795Z,98955.62
2019-03-25T16:31:27.840Z,98949.90
2019-03-25T16:33:58.819Z,98958.64
2019-03-25T16:36:29.811Z,98956.16
2019-03-25T16:39:00.830Z,98954.72
2019-03-25T16:41:31.831Z,98958.69
2019-03-25T16:44:02.860Z,98957.03
2019-03-25T16:46:33.903Z,98958.89
2019-03-25T16:49:05.132Z,98958.15
2019-03-25T16:51:36.136Z,98963.23
2019-03-25T16:54:07.160Z,98964.57
2019-03-25T16:56:38.163Z,98968.52
2019-03-25T16:59:09.166Z,98958.88
2019-03-25T17:01:40.142Z,98958.27
2019-03-25T17:04:11.197Z,98958.69
2019-03-25T17:06:42.191Z,98964.33
2019-03-25T17:09:13.179Z,98962.34
2019-03-25T17:11:44.273Z,98962.84
2019-03-25T17:14:15.261Z,98967.62
2019-03-25T17:16:46.291Z,98967.16
2019-03-25T17:19:17.308Z,98974.66
2019-03-25T17:21:57.723Z,98981.84
2019-03-25T17:24:21.014Z,98985.02
2019-03-25T17:26:52.007Z,98985.63
2019-03-25T17:29:23.025Z,98984.12
2019-03-25T17:31:54.001Z,98982.08
2019-03-25T17:34:24.985Z,98985.77
2019-03-25T17:36:56.009Z,98985.09
2019-03-25T17:39:26.985Z,98978.58
2019-03-25T17:41:58.013Z,98973.55
2019-03-25T17:44:28.992Z,98978.26
2019-03-25T17:47:00.032Z,98979.99
2019-03-25T17:49:31.038Z,98980.63
2019-03-25T17:52:02.061Z,98989.11
2019-03-25T17:54:33.046Z,98986.73
2019-03-25T17:57:04.027Z,98989.82
2019-03-25T17:59:35.048Z,98996.97
2019-03-25T18:02:06.237Z,98994.37
2019-03-25T18:04:37.258Z,98823.12
2019-03-25T18:07:08.488Z,99008.12
2019-03-25T18:09:39.479Z,99008.43
2019-03-25T18:12:10.503Z,99017.98
2019-03-25T18:14:41.533Z,99015.84
2019-03-25T18:17:12.569Z,99015.16
2019-03-25T18:19:43.564Z,99018.16
2019-03-25T18:22:14.531Z,99028.86
2019-03-25T18:24:45.552Z,99029.99
2019-03-25T18:27:16.539Z,99027.31
2019-03-25T18:29:47.591Z,99033.08
2019-03-25T18:32:18.555Z,99032.56
2019-03-25T18:34:49.575Z,99037.48
2019-03-25T18:37:20.640Z,99033.41
2019-03-25T18:39:51.638Z,99036.11
2019-03-25T18:42:22.659Z,99032.87
2019-03-25T18:44:53.727Z,99039.72
2019-03-25T18:47:24.837Z,99041.66
2019-03-25T18:49:55.813Z,99044.70
2019-03-25T18:52:26.812Z,99044.19
2019-03-25T18:54:57.966Z,99053.75
2019-03-25T18:57:28.988Z,99059.02
2019-03-25T18:59:59.999Z,99059.25
2019-03-25T19:02:31.181Z,99056.58
2019-03-25T19:05:02.213Z,99061.47
2019-03-25T19:07:33.986Z,99057.13
2019-03-25T19:10:05.338Z,99064.22
2019-03-25T19:12:36.355Z,99070.27
2019-03-25T19:15:07.559Z,99068.65
2019-03-25T19:17:38.579Z,99078.75
2019-03-25T19:20:09.700Z,99078.20
2019-03-25T19:22:40.678Z,99083.42
2019-03-25T19:25:11.823Z,99081.78
2019-03-25T19:27:42.791Z,99080.70
2019-03-25T19:30:14.075Z,99084.25
2019-03-25T19:32:45.106Z,99080.70
2019-03-25T19:35:16.201Z,99081.53
2019-03-25T19:37:47.283Z,99084.55
2019-03-25T19:40:18.310Z,99088.36
2019-03-25T19:42:49.394Z,99084.53
2019-03-25T19:45:20.493Z,99085.87
2019-03-25T19:47:51.541Z,99082.61
2019-03-25T19:50:22.717Z,99077.19
2019-03-25T19:52:53.756Z,99076.35
2019-03-25T19:55:24.744Z,99079.64
2019-03-25T19:57:55.867Z,99077.73
2019-03-25T20:00:37.951Z,99077.73
2019-03-25T20:03:09.199Z,99080.73
2019-03-25T20:05:40.272Z,99080.20
2019-03-25T20:08:11.309Z,99080.72
2019-03-25T20:10:42.346Z,99101.41
2019-03-25T20:13:13.429Z,99093.79
2019-03-25T20:15:46.513Z,99099.20
2019-03-25T20:18:17.055Z,99100.55
2019-03-25T20:20:48.081Z,99098.91
2019-03-25T20:23:19.287Z,99102.98
2019-03-25T20:25:50.231Z,99097.77
2019-03-25T20:28:21.265Z,99101.05
2019-03-25T20:30:52.269Z,99111.89
2019-03-25T20:33:23.299Z,99109.13
2019-03-25T20:35:54.308Z,99109.94
2019-03-25T20:38:25.342Z,99106.96
2019-03-25T20:40:56.353Z,99104.28
2019-03-25T20:43:27.327Z,99106.45
2019-03-25T20:45:58.386Z,99107.00
2019-03-25T20:48:29.357Z,99106.41
2019-03-25T20:51:00.477Z,99116.19
2019-03-25T20:53:31.455Z,99113.77
2019-03-25T20:56:02.512Z,99117.03
2019-03-25T20:58:33.695Z,99118.95
2019-03-25T21:01:04.785Z,99123.80
2019-03-25T21:03:35.797Z,99126.25
2019-03-25T21:06:06.915Z,99125.44
2019-03-25T21:08:38.007Z,99128.72
2019-03-25T21:11:08.976Z,99126.26
2019-03-25T21:13:40.198Z,99121.62
2019-03-25T21:16:11.142Z,99130.59
2019-03-25T21:18:42.205Z,99128.97
2019-03-25T21:21:13.199Z,99134.66
2019-03-25T21:23:44.222Z,99131.68
2019-03-25T21:26:15.365Z,99128.33
2019-03-25T21:28:46.376Z,99129.43
2019-03-25T21:31:17.350Z,99130.50
2019-03-25T21:33:48.395Z,99132.66
2019-03-25T21:36:19.440Z,99130.44
2019-03-25T21:38:50.510Z,99135.06
2019-03-25T21:41:21.659Z,99132.34
2019-03-25T21:43:52.741Z,99125.81
2019-03-25T21:46:23.846Z,99125.25
2019-03-25T21:48:54.962Z,99118.16
2019-03-25T21:51:25.928Z,99117.34
2019-03-25T21:53:57.046Z,99027.58
2019-03-25T21:56:28.132Z,99124.36
2019-03-25T21:59:00.451Z,99125.95
2019-03-25T22:01:31.722Z,99119.92
2019-03-25T22:04:02.713Z,99059.05
2019-03-25T22:06:33.709Z,99111.94
2019-03-25T22:09:06.010Z,99115.45
2019-03-25T22:11:37.032Z,99121.11
2019-03-25T22:14:08.019Z,99127.30
2019-03-25T22:16:39.003Z,99124.27
2019-03-25T22:19:10.032Z,99120.93
2019-03-25T22:21:41.176Z,99123.05
2019-03-25T22:24:12.194Z,99120.83
2019-03-25T22:26:43.177Z,99125.11
2019-03-25T22:29:14.190Z,99127.25
2019-03-25T22:31:45.176Z,99125.31
2019-03-25T22:34:16.205Z,99120.36
2019-03-25T22:36:47.187Z,98956.27
2019-03-25T22:39:18.211Z,99124.05
2019-03-25T22:41:49.196Z,99115.84
2019-03-25T22:44:20.235Z,99117.42
2019-03-25T22:46:51.234Z,99116.59
2019-03-25T22:49:22.271Z,99115.46
2019-03-25T22:51:53.267Z,99117.61
2019-03-25T22:54:24.300Z,99120.00
2019-03-25T22:56:55.284Z,99135.16
2019-03-25T22:59:26.266Z,99134.59
2019-03-25T23:01:57.292Z,99129.16
2019-03-25T23:04:28.280Z,99135.12
2019-03-25T23:06:59.300Z,99131.84
2019-03-25T23:09:30.289Z,99132.36
2019-03-25T23:12:01.519Z,99137.48
2019-03-25T23:14:32.620Z,99136.92
2019-03-25T23:17:03.612Z,99130.12
2019-03-25T23:19:34.666Z,99131.72
2019-03-25T23:22:05.816Z,99129.25
2019-03-25T23:24:36.829Z,99129.42
2019-03-25T23:27:07.833Z,99135.95
2019-03-25T23:29:38.874Z,99136.44
2019-03-25T23:32:09.925Z,99029.38
2019-03-25T23:34:41.001Z,99133.66
2019-03-25T23:37:12.062Z,99137.63
2019-03-25T23:39:43.114Z,99137.85
2019-03-25T23:42:14.112Z,99140.51
2019-03-25T23:44:45.178Z,99143.67
2019-03-25T23:47:16.192Z,99143.89
2019-03-25T23:49:47.232Z,99141.91
2019-03-25T23:52:18.229Z,99142.66
2019-03-25T23:54:49.279Z,99145.81
2019-03-25T23:57:20.380Z,99142.74
2019-03-25T23:59:51.417Z,99149.15
